Sunday, December 8, 2019, 8:36 PM GMT
Back to Local

CYUL, Montreal / Pierre Elliot Trudeau International Airport, Que

Location: , , Canada Lat: 45.467
Local Time: 8:36 PM GMT (20:36 GMT) Lon: -73.75
Time Zone: GMT Elev: 101 ft

Show me the last for .
Show Decoded

2019-12-08 20:00 METAR CYUL 082000Z 15017KT 15SM -SN SCT090 OVC180 M02/M07 A3011 RMK AC3AC5
                 SLP200 =
2019-12-08 19:37 METAR CYUL 081937Z 14014KT 15SM -SN OVC065 M02/M08 A3012 RMK SC8 PRESFR SLP203 =
2019-12-08 19:00 METAR CYUL 081900Z 14010KT 15SM OVC055 M02/M08 A3016 RMK SC8 SLP216 =
2019-12-08 18:00 METAR CYUL 081800Z 14010KT 30SM OVC060 M03/M09 A3020 RMK SC8 SLP230 =
2019-12-08 17:00 METAR CYUL 081700Z 15009KT 30SM OVC070 M04/M09 A3025 RMK AC8 SLP247 =
2019-12-08 16:00 METAR CYUL 081600Z 12006KT 30SM BKN130 OVC180 M04/M11 A3029 RMK AC6AC2 SLP260 =
2019-12-08 15:00 METAR CYUL 081500Z 15007KT 30SM FEW080 BKN120 BKN180 M05/M11 A3032 RMK AC2AC3AC2
                 SLP272 =
2019-12-08 14:00 METAR CYUL 081400Z 16008KT 30SM FEW090 BKN120 BKN160 OVC240 M07/M12 A3034 RMK
                 AC1AS5AS1CI2 AC TR SLP280 =
2019-12-08 13:00 METAR CYUL 081300Z 15010KT 30SM SCT140 BKN170 BKN230 M07/M12 A3035 RMK AS3AS2CI2
                 SLP282 =
2019-12-08 12:00 METAR CYUL 081200Z 15009KT 15SM SCT180 BKN230 M08/M12 A3036 RMK AC3CI3 SLP286 =
2019-12-08 11:00 METAR CYUL 081100Z 15008KT 15SM SCT230 M08/M12 A3039 RMK CI3 SLP296 =
2019-12-08 10:00 METAR CYUL 081000Z 16005KT 15SM FEW250 M10/M12 A3040 RMK CI1 CI TR SLP300 =
2019-12-08 09:00 METAR CYUL 080900Z 00000KT 15SM FEW020 FEW250 M10/M12 A3041 RMK CF1CI1 CF TR CI
                 TR SLP302 =
2019-12-08 08:00 METAR CYUL 080800Z 21003KT 15SM FEW018 FEW250 M10/M11 A3042 RMK CF1CI1 CF TR CI
                 TR SLP306 =
2019-12-08 07:00 METAR CYUL 080700Z 24006KT 15SM FEW020 M11/M13 A3044 RMK SC1 SC TR SLP312 =
2019-12-08 06:00 METAR CYUL 080600Z 25006KT 15SM FEW020 M11/M13 A3042 RMK SC1 SC TR SLP307 =
2019-12-08 05:00 METAR CYUL 080500Z 24007KT 15SM SKC M11/M14 A3043 RMK SLP309 =
2019-12-08 04:00 METAR CYUL 080400Z 22005KT 15SM SKC M09/M12 A3043 RMK SLP309 =
2019-12-08 03:00 METAR CYUL 080300Z 24006KT 15SM SKC M10/M13 A3042 RMK SLP306 =
2019-12-08 02:00 METAR CYUL 080200Z 25009KT 15SM SKC M09/M12 A3042 RMK SLP305 =
2019-12-08 01:00 METAR CYUL 080100Z 25009KT 15SM FEW150 M08/M12 A3042 RMK AC1 AC TR SLP304 =
2019-12-08 00:00 METAR CYUL 080000Z 25009KT 15SM FEW030 M08/M12 A3041 RMK CF1 CF TR SLP301 =
2019-12-07 23:00 METAR CYUL 072300Z 25006KT 15SM FEW035 FEW150 M08/M12 A3040 RMK CF1AC1 CF TR AC
                 TR SLP299 =
2019-12-07 22:00 METAR CYUL 072200Z 24009KT 15SM FEW030 FEW150 M07/M11 A3039 RMK SC1AC1 SC TR AC
                 TR SLP295 =
2019-12-07 21:00 METAR CYUL 072100Z 26011KT 15SM FEW025 FEW240 M05/M11 A3037 RMK SC1CI1 SC TR CI
                 TR SLP290 =

Support USWX by starting your Amazon purchase here.